Ufimets — UFNC — position and weather

sailwx.info

Track history (hours):
 
Tides and Currents Weather Stations Pressure Air Temp Water Temp Dewpoint Dewpoint Depression Visibility Wind Speed Wind Dir Waves Ship Positions

Ufimets

Last reported at 2018-May-22 04:22 UTC. Time now 2018-May-25 03:23 UTC.
Position N 59°46' E 030°47'.

Length 82 m; draft 1.8 m.

Type: Ship. MMSI: 27343260.

Date/timePositionNaut miles runAvg speedWind from/ knotsBaromVisibWave heightAir tempDewpointWater temp
2018-May-22 04:22N 59°46' E 030°47'1 3.2
2018-May-22 04:00N 59°46' E 030°45'3 5.1
2018-May-22 03:30N 59°47' E 030°40'2 4.8
2018-May-22 03:00N 59°48' E 030°36'0 0.5
2018-May-22 02:29N 59°49' E 030°36'0 0.0
2018-May-22 01:56N 59°49' E 030°36'0 0.0
2018-May-22 01:30N 59°49' E 030°36'2 4.0
2018-May-22 01:01N 59°50' E 030°33'2 4.4
2018-May-22 00:30N 59°51' E 030°30'2 4.8
2018-May-22 00:00N 59°53' E 030°27'3 5.6
2018-May-21 23:30N 59°56' E 030°24'2 3.6
2018-May-21 23:00N 59°57' E 030°22'3 5.2
2018-May-21 22:31N 59°56' E 030°17'0 0.2
2018-May-21 22:00N 59°56' E 030°17'0 0.0
2018-May-21 21:29N 59°56' E 030°17'0 0.0
2018-May-21 20:56N 59°56' E 030°17'0 0.0
2018-May-21 20:29N 59°56' E 030°17'0 0.0
2018-May-21 19:59N 59°56' E 030°17'0 0.0
2018-May-21 19:29N 59°56' E 030°17'0 0.0
2018-May-21 18:59N 59°56' E 030°17'0 0.0
2018-May-21 18:26N 59°56' E 030°17'0 0.0
2018-May-21 17:59N 59°56' E 030°17'0 0.0
2018-May-21 17:29N 59°56' E 030°17'0 0.0
2018-May-21 16:59N 59°56' E 030°17'0 0.0
2018-May-21 16:29N 59°56' E 030°17'0 0.0
2018-May-21 15:58N 59°56' E 030°17'0 0.0
2018-May-21 15:29N 59°56' E 030°17'0 0.0
2018-May-21 14:59N 59°56' E 030°17'0 0.0
2018-May-21 14:29N 59°56' E 030°17'0 0.0
2018-May-21 13:59N 59°56' E 030°17'0 0.0
2018-May-21 13:29N 59°56' E 030°17'0 0.0
2018-May-21 12:59N 59°56' E 030°17'0 0.0
2018-May-21 12:29N 59°56' E 030°17'0 0.0
2018-May-21 11:59N 59°56' E 030°17'0 0.0
2018-May-21 11:29N 59°56' E 030°17'0 0.0
2018-May-21 10:59N 59°56' E 030°17'0 0.0
2018-May-21 10:30N 59°56' E 030°17'1 1.8
2018-May-21 10:00N 59°55' E 030°16'3 5.6
2018-May-21 09:30N 59°56' E 030°11'3 6.9
2018-May-21 09:00N 59°56' E 030°04'4 7.7
2018-May-21 08:30N 59°56' E 029°56'4 8.2
2018-May-21 08:00N 59°58' E 029°48'5 7.5
2018-May-21 07:24N 59°60' E 029°40'9 9.3
2018-May-21 06:23N 60°02' E 029°22'3 8.3
2018-May-21 05:58N 60°02' E 029°15'3 6.3
2018-May-21 05:28N 60°02' E 029°09'5 9.4
2018-May-21 04:55N 60°03' E 028°59'4 8.7
2018-May-21 04:30N 60°06' E 028°55'4 8.5
2018-May-21 04:00N 60°10' E 028°50'4 8.6
2018-May-21 03:28N 60°13' E 028°43'5 9.4
2018-May-21 02:57N 60°15' E 028°34'5 8.5
2018-May-21 02:24N 60°17' E 028°26'4 7.6
2018-May-21 01:54N 60°20' E 028°21'4 8.6
2018-May-21 01:29N 60°24' E 028°20'  
2018-May-18 03:15N 60°35' E 028°25'7 0.4
2018-May-17 12:09N 60°28' E 028°21'1 6.3
2018-May-17 11:59N 60°27' E 028°20'3 6.8
2018-May-17 11:31N 60°24' E 028°20'4 7.0
2018-May-17 11:00N 60°21' E 028°21'4 6.9
2018-May-17 10:30N 60°18' E 028°25'4 6.2
2018-May-17 09:53N 60°16' E 028°32'3 7.2
2018-May-17 09:29N 60°14' E 028°37'3 6.4
2018-May-17 09:00N 60°13' E 028°42'3 6.8
2018-May-17 08:30N 60°11' E 028°48'4 6.9
2018-May-17 07:59N 60°10' E 028°55'3 6.4
2018-May-17 07:29N 60°07' E 028°57'3 6.4
2018-May-17 06:59N 60°04' E 028°59'3 6.4
2018-May-17 06:26N 60°02' E 029°05'4 7.2
2018-May-17 05:56N 60°02' E 029°12'3 7.5
2018-May-17 05:29N 60°02' E 029°19'14 6.7
2018-May-17 03:22N 59°59' E 029°46'4 5.4
2018-May-17 02:40N 59°57' E 029°53'1 5.1
2018-May-17 02:28N 59°56' E 029°55'3 6.9
2018-May-17 02:00N 59°55' E 030°01'3 7.0
2018-May-17 01:30N 59°54' E 030°07'3 5.6
2018-May-17 01:00N 59°54' E 030°13'3 6.5
2018-May-17 00:30N 59°56' E 030°17'4 7.1
2018-May-17 00:00N 59°57' E 030°24'2 4.8
2018-May-16 23:30N 59°55' E 030°24'0 0.4
2018-May-16 23:00N 59°55' E 030°24'0 0.0
2018-May-16 22:30N 59°55' E 030°24'0 0.0
2018-May-16 22:00N 59°55' E 030°24'0 0.0
2018-May-16 21:21N 59°55' E 030°24'0 0.0
2018-May-16 20:27N 59°55' E 030°24'0 0.0
2018-May-16 19:06N 59°55' E 030°24'0 0.0
2018-May-16 18:45N 59°55' E 030°24'0 0.0
2018-May-16 17:45N 59°55' E 030°24'0 0.0
2018-May-16 17:30N 59°55' E 030°24'0 0.0
2018-May-16 17:00N 59°55' E 030°24'0 0.0
2018-May-16 16:27N 59°55' E 030°24'0 0.0
2018-May-16 15:57N 59°55' E 030°24'0 0.0
2018-May-16 15:27N 59°55' E 030°24'0 0.0
2018-May-16 14:57N 59°55' E 030°24'0 0.0
2018-May-16 14:30N 59°55' E 030°24'0 0.0
2018-May-16 14:00N 59°55' E 030°24'0 0.0
2018-May-16 13:27N 59°55' E 030°24'0 0.0
2018-May-16 13:00N 59°55' E 030°24'0 0.0
2018-May-16 12:27N 59°55' E 030°24'0 0.0
2018-May-16 12:00N 59°55' E 030°24'0 0.0
2018-May-16 11:27N 59°55' E 030°24'0 0.0
2018-May-16 11:00N 59°55' E 030°24'0 0.0
2018-May-16 10:24N 59°55' E 030°24'0 0.0
2018-May-16 09:57N 59°55' E 030°24'0 0.0
2018-May-16 09:30N 59°55' E 030°24'0 0.0
2018-May-16 09:00N 59°55' E 030°24'0 0.0
2018-May-16 08:24N 59°55' E 030°24'0 0.0
2018-May-16 07:57N 59°55' E 030°24'0 0.0
2018-May-16 07:27N 59°55' E 030°24'0 0.0
2018-May-16 07:00N 59°55' E 030°24'0 0.0
2018-May-16 06:30N 59°55' E 030°24'0 0.0
2018-May-16 05:57N 59°55' E 030°24'0 0.0
2018-May-16 05:30N 59°55' E 030°24'0 0.0
2018-May-16 05:00N 59°55' E 030°24'0 0.0
2018-May-16 04:30N 59°55' E 030°24'0 0.0
2018-May-16 03:48N 59°55' E 030°24'0 0.0
2018-May-16 03:30N 59°55' E 030°24'0 0.0
2018-May-16 02:57N 59°55' E 030°24'0 0.0
2018-May-16 02:27N 59°55' E 030°24'0 0.0
2018-May-16 02:00N 59°55' E 030°24'0 0.0
2018-May-16 01:30N 59°55' E 030°24'0 0.0
2018-May-16 00:57N 59°55' E 030°24'0 0.0
2018-May-16 00:27N 59°55' E 030°24'0 0.0
2018-May-15 23:51N 59°55' E 030°24'0 0.0
2018-May-15 23:21N 59°55' E 030°24'0 0.0
2018-May-15 22:42N 59°55' E 030°24'0 0.0
2018-May-15 22:30N 59°55' E 030°24'0 0.0
2018-May-15 21:48N 59°55' E 030°24'0 0.0
2018-May-15 21:27N 59°55' E 030°24'0 0.0
2018-May-15 20:48N 59°55' E 030°24'0 0.0
2018-May-15 20:03N 59°55' E 030°24'0 0.0
2018-May-15 19:51N 59°55' E 030°24'0 0.0
2018-May-15 18:51N 59°55' E 030°24'0 0.0
2018-May-15 18:21N 59°55' E 030°24'0 0.0
2018-May-15 17:18N 59°55' E 030°24'0 0.0
2018-May-15 16:57N 59°55' E 030°24'0 0.0
2018-May-15 16:24N 59°55' E 030°24'0 0.0
2018-May-15 16:00N 59°55' E 030°24'0 0.0
2018-May-15 15:27N 59°55' E 030°24'0 0.0
2018-May-15 14:54N 59°55' E 030°24'0 0.0
2018-May-15 14:30N 59°55' E 030°24'0 0.0
2018-May-15 13:57N 59°55' E 030°24'0 0.0
2018-May-15 13:27N 59°55' E 030°24'0 0.0
2018-May-15 12:36N 59°55' E 030°24'0 0.0
2018-May-15 12:09N 59°55' E 030°24'0 0.0
2018-May-15 11:48N 59°55' E 030°24'0 0.0
2018-May-15 11:27N 59°55' E 030°24'0 0.0
2018-May-15 10:09N 59°55' E 030°24'0 0.0
2018-May-15 09:51N 59°55' E 030°24'0 0.0
2018-May-15 09:09N 59°55' E 030°24'0 0.0
2018-May-15 08:45N 59°55' E 030°24'0 0.0
2018-May-15 08:30N 59°55' E 030°24'0 0.0
2018-May-15 07:57N 59°55' E 030°24'0 0.0
2018-May-15 07:24N 59°55' E 030°24'0 0.0
2018-May-15 06:45N 59°55' E 030°24'0 0.0
2018-May-15 06:30N 59°55' E 030°24'0 0.0
2018-May-15 05:57N 59°55' E 030°24'0 0.0
2018-May-15 04:54N 59°55' E 030°24'0 0.0
2018-May-15 04:00N 59°55' E 030°24'0 0.0
2018-May-15 03:30N 59°55' E 030°24'0 0.0
2018-May-15 02:57N 59°55' E 030°24'0 0.0
2018-May-15 02:27N 59°55' E 030°24'0 0.0
2018-May-15 01:21N 59°55' E 030°24'0 0.0
2018-May-15 00:57N 59°55' E 030°24'0 0.0
2018-May-14 23:54N 59°55' E 030°24'0 0.0
2018-May-14 23:30N 59°55' E 030°24'0 0.0
2018-May-14 23:00N 59°55' E 030°24'0 0.0
2018-May-14 22:18N 59°55' E 030°24'0 0.0
2018-May-14 21:57N 59°55' E 030°24'0 0.0
2018-May-14 20:21N 59°55' E 030°24'0 0.0
2018-May-14 19:54N 59°55' E 030°24'0 0.0
2018-May-14 18:48N 59°55' E 030°24'0 0.0
2018-May-14 18:18N 59°55' E 030°24'0 0.0
2018-May-14 18:00N 59°55' E 030°24'0 0.0
2018-May-14 17:30N 59°55' E 030°24'0 0.0
2018-May-14 16:51N 59°55' E 030°24'0 0.0
2018-May-14 16:30N 59°55' E 030°24'0 0.0
2018-May-14 16:00N 59°55' E 030°24'0 0.0
2018-May-14 15:12N 59°55' E 030°24'0 0.0
2018-May-14 15:00N 59°55' E 030°24'0 0.0
2018-May-14 14:27N 59°55' E 030°24'0 0.0
2018-May-14 13:57N 59°55' E 030°24'0 0.0
2018-May-14 13:27N 59°55' E 030°24'0 0.0
2018-May-14 12:39N 59°55' E 030°24'0 0.0
2018-May-14 12:30N 59°55' E 030°24'0 0.0
2018-May-14 11:30N 59°55' E 030°24'0 0.0
2018-May-14 10:27N 59°55' E 030°24'0 0.0
2018-May-14 09:57N 59°55' E 030°24'0 0.0
2018-May-14 09:27N 59°55' E 030°24'0 0.0
2018-May-14 08:54N 59°55' E 030°24'0 0.0
2018-May-14 08:27N 59°55' E 030°24'0 0.0
2018-May-14 07:24N 59°55' E 030°24'0 0.0
2018-May-14 06:57N 59°55' E 030°24'0 0.0
2018-May-14 06:30N 59°55' E 030°24'0 0.0
2018-May-14 06:00N 59°55' E 030°24'0 0.0
2018-May-14 05:27N 59°55' E 030°24'0 0.0
2018-May-14 05:00N 59°55' E 030°24'0 0.0
2018-May-14 04:30N 59°55' E 030°24'0 0.0
2018-May-14 04:00N 59°55' E 030°24'0 0.0
2018-May-14 03:30N 59°55' E 030°24'0 0.0
2018-May-14 03:00N 59°55' E 030°24'0 0.0
2018-May-14 02:30N 59°55' E 030°24'0 0.0
2018-May-14 01:57N 59°55' E 030°24'0 0.0
2018-May-14 01:30N 59°55' E 030°24'0 0.0
2018-May-14 00:27N 59°55' E 030°24'0 0.0
2018-May-13 23:54N 59°55' E 030°24'0 0.0
2018-May-13 21:15N 59°55' E 030°24'0 0.0
2018-May-13 21:00N 59°55' E 030°24'0 0.0
2018-May-13 20:27N 59°55' E 030°24'0 0.0
2018-May-13 19:57N 59°55' E 030°24'0 0.0
2018-May-13 17:48N 59°55' E 030°24'0 0.0
2018-May-13 17:27N 59°55' E 030°24'0 0.0
2018-May-13 16:42N 59°55' E 030°24'0 0.0
2018-May-13 16:30N 59°55' E 030°24'0 0.0
2018-May-13 16:00N 59°55' E 030°24'0 0.0
2018-May-13 15:24N 59°55' E 030°24'0 0.0
2018-May-13 14:57N 59°55' E 030°24'0 0.0
2018-May-13 14:30N 59°55' E 030°24'0 0.0
2018-May-13 13:54N 59°55' E 030°24'0 0.1
2018-May-13 13:31N 59°55' E 030°24'4 7.9
2018-May-13 13:00N 59°52' E 030°29'5 8.5
2018-May-13 12:28N 59°49' E 030°35'  
Track history (hours):
 
Tides and Currents Weather Stations Pressure Air Temp Water Temp Dewpoint Dewpoint Depression Visibility Wind Speed Wind Dir Waves Ship Positions

Ufimets

Last reported at 2018-May-22 04:22 UTC. Time now 2018-May-25 03:23 UTC.
Position N 59°46' E 030°47'.

Length 82 m; draft 1.8 m.

Type: Ship. MMSI: 27343260.

Date/timePositionNaut miles runAvg speedWind from/ knotsBaromVisibWave heightAir tempDewpointWater temp
2018-May-22 04:22N 59°46' E 030°47'1 3.2
2018-May-22 04:00N 59°46' E 030°45'3 5.1
2018-May-22 03:30N 59°47' E 030°40'2 4.8
2018-May-22 03:00N 59°48' E 030°36'0 0.5
2018-May-22 02:29N 59°49' E 030°36'0 0.0
2018-May-22 01:56N 59°49' E 030°36'0 0.0
2018-May-22 01:30N 59°49' E 030°36'2 4.0
2018-May-22 01:01N 59°50' E 030°33'2 4.4
2018-May-22 00:30N 59°51' E 030°30'2 4.8
2018-May-22 00:00N 59°53' E 030°27'3 5.6
2018-May-21 23:30N 59°56' E 030°24'2 3.6
2018-May-21 23:00N 59°57' E 030°22'3 5.2
2018-May-21 22:31N 59°56' E 030°17'0 0.2
2018-May-21 22:00N 59°56' E 030°17'0 0.0
2018-May-21 21:29N 59°56' E 030°17'0 0.0
2018-May-21 20:56N 59°56' E 030°17'0 0.0
2018-May-21 20:29N 59°56' E 030°17'0 0.0
2018-May-21 19:59N 59°56' E 030°17'0 0.0
2018-May-21 19:29N 59°56' E 030°17'0 0.0
2018-May-21 18:59N 59°56' E 030°17'0 0.0
2018-May-21 18:26N 59°56' E 030°17'0 0.0
2018-May-21 17:59N 59°56' E 030°17'0 0.0
2018-May-21 17:29N 59°56' E 030°17'0 0.0
2018-May-21 16:59N 59°56' E 030°17'0 0.0
2018-May-21 16:29N 59°56' E 030°17'0 0.0
2018-May-21 15:58N 59°56' E 030°17'0 0.0
2018-May-21 15:29N 59°56' E 030°17'0 0.0
2018-May-21 14:59N 59°56' E 030°17'0 0.0
2018-May-21 14:29N 59°56' E 030°17'0 0.0
2018-May-21 13:59N 59°56' E 030°17'0 0.0
2018-May-21 13:29N 59°56' E 030°17'0 0.0
2018-May-21 12:59N 59°56' E 030°17'0 0.0
2018-May-21 12:29N 59°56' E 030°17'0 0.0
2018-May-21 11:59N 59°56' E 030°17'0 0.0
2018-May-21 11:29N 59°56' E 030°17'0 0.0
2018-May-21 10:59N 59°56' E 030°17'0 0.0
2018-May-21 10:30N 59°56' E 030°17'1 1.8
2018-May-21 10:00N 59°55' E 030°16'3 5.6
2018-May-21 09:30N 59°56' E 030°11'3 6.9
2018-May-21 09:00N 59°56' E 030°04'4 7.7
2018-May-21 08:30N 59°56' E 029°56'4 8.2
2018-May-21 08:00N 59°58' E 029°48'5 7.5
2018-May-21 07:24N 59°60' E 029°40'9 9.3
2018-May-21 06:23N 60°02' E 029°22'3 8.3
2018-May-21 05:58N 60°02' E 029°15'3 6.3
2018-May-21 05:28N 60°02' E 029°09'5 9.4
2018-May-21 04:55N 60°03' E 028°59'4 8.7
2018-May-21 04:30N 60°06' E 028°55'4 8.5
2018-May-21 04:00N 60°10' E 028°50'4 8.6
2018-May-21 03:28N 60°13' E 028°43'5 9.4
2018-May-21 02:57N 60°15' E 028°34'5 8.5
2018-May-21 02:24N 60°17' E 028°26'4 7.6
2018-May-21 01:54N 60°20' E 028°21'4 8.6
2018-May-21 01:29N 60°24' E 028°20'  
2018-May-18 03:15N 60°35' E 028°25'7 0.4
2018-May-17 12:09N 60°28' E 028°21'1 6.3
2018-May-17 11:59N 60°27' E 028°20'3 6.8
2018-May-17 11:31N 60°24' E 028°20'4 7.0
2018-May-17 11:00N 60°21' E 028°21'4 6.9
2018-May-17 10:30N 60°18' E 028°25'4 6.2
2018-May-17 09:53N 60°16' E 028°32'3 7.2
2018-May-17 09:29N 60°14' E 028°37'3 6.4
2018-May-17 09:00N 60°13' E 028°42'3 6.8
2018-May-17 08:30N 60°11' E 028°48'4 6.9
2018-May-17 07:59N 60°10' E 028°55'3 6.4
2018-May-17 07:29N 60°07' E 028°57'3 6.4
2018-May-17 06:59N 60°04' E 028°59'3 6.4
2018-May-17 06:26N 60°02' E 029°05'4 7.2
2018-May-17 05:56N 60°02' E 029°12'3 7.5
2018-May-17 05:29N 60°02' E 029°19'14 6.7
2018-May-17 03:22N 59°59' E 029°46'4 5.4
2018-May-17 02:40N 59°57' E 029°53'1 5.1
2018-May-17 02:28N 59°56' E 029°55'3 6.9
2018-May-17 02:00N 59°55' E 030°01'3 7.0
2018-May-17 01:30N 59°54' E 030°07'3 5.6
2018-May-17 01:00N 59°54' E 030°13'3 6.5
2018-May-17 00:30N 59°56' E 030°17'4 7.1
2018-May-17 00:00N 59°57' E 030°24'2 4.8
2018-May-16 23:30N 59°55' E 030°24'0 0.4
2018-May-16 23:00N 59°55' E 030°24'0 0.0
2018-May-16 22:30N 59°55' E 030°24'0 0.0
2018-May-16 22:00N 59°55' E 030°24'0 0.0
2018-May-16 21:21N 59°55' E 030°24'0 0.0
2018-May-16 20:27N 59°55' E 030°24'0 0.0
2018-May-16 19:06N 59°55' E 030°24'0 0.0
2018-May-16 18:45N 59°55' E 030°24'0 0.0
2018-May-16 17:45N 59°55' E 030°24'0 0.0
2018-May-16 17:30N 59°55' E 030°24'0 0.0
2018-May-16 17:00N 59°55' E 030°24'0 0.0
2018-May-16 16:27N 59°55' E 030°24'0 0.0
2018-May-16 15:57N 59°55' E 030°24'0 0.0
2018-May-16 15:27N 59°55' E 030°24'0 0.0
2018-May-16 14:57N 59°55' E 030°24'0 0.0
2018-May-16 14:30N 59°55' E 030°24'0 0.0
2018-May-16 14:00N 59°55' E 030°24'0 0.0
2018-May-16 13:27N 59°55' E 030°24'0 0.0
2018-May-16 13:00N 59°55' E 030°24'0 0.0
2018-May-16 12:27N 59°55' E 030°24'0 0.0
2018-May-16 12:00N 59°55' E 030°24'0 0.0
2018-May-16 11:27N 59°55' E 030°24'0 0.0
2018-May-16 11:00N 59°55' E 030°24'0 0.0
2018-May-16 10:24N 59°55' E 030°24'0 0.0
2018-May-16 09:57N 59°55' E 030°24'0 0.0
2018-May-16 09:30N 59°55' E 030°24'0 0.0
2018-May-16 09:00N 59°55' E 030°24'0 0.0
2018-May-16 08:24N 59°55' E 030°24'0 0.0
2018-May-16 07:57N 59°55' E 030°24'0 0.0
2018-May-16 07:27N 59°55' E 030°24'0 0.0
2018-May-16 07:00N 59°55' E 030°24'0 0.0
2018-May-16 06:30N 59°55' E 030°24'0 0.0
2018-May-16 05:57N 59°55' E 030°24'0 0.0
2018-May-16 05:30N 59°55' E 030°24'0 0.0
2018-May-16 05:00N 59°55' E 030°24'0 0.0
2018-May-16 04:30N 59°55' E 030°24'0 0.0
2018-May-16 03:48N 59°55' E 030°24'0 0.0
2018-May-16 03:30N 59°55' E 030°24'0 0.0
2018-May-16 02:57N 59°55' E 030°24'0 0.0
2018-May-16 02:27N 59°55' E 030°24'0 0.0
2018-May-16 02:00N 59°55' E 030°24'0 0.0
2018-May-16 01:30N 59°55' E 030°24'0 0.0
2018-May-16 00:57N 59°55' E 030°24'0 0.0
2018-May-16 00:27N 59°55' E 030°24'0 0.0
2018-May-15 23:51N 59°55' E 030°24'0 0.0
2018-May-15 23:21N 59°55' E 030°24'0 0.0
2018-May-15 22:42N 59°55' E 030°24'0 0.0
2018-May-15 22:30N 59°55' E 030°24'0 0.0
2018-May-15 21:48N 59°55' E 030°24'0 0.0
2018-May-15 21:27N 59°55' E 030°24'0 0.0
2018-May-15 20:48N 59°55' E 030°24'0 0.0
2018-May-15 20:03N 59°55' E 030°24'0 0.0
2018-May-15 19:51N 59°55' E 030°24'0 0.0
2018-May-15 18:51N 59°55' E 030°24'0 0.0
2018-May-15 18:21N 59°55' E 030°24'0 0.0
2018-May-15 17:18N 59°55' E 030°24'0 0.0
2018-May-15 16:57N 59°55' E 030°24'0 0.0
2018-May-15 16:24N 59°55' E 030°24'0 0.0
2018-May-15 16:00N 59°55' E 030°24'0 0.0
2018-May-15 15:27N 59°55' E 030°24'0 0.0
2018-May-15 14:54N 59°55' E 030°24'0 0.0
2018-May-15 14:30N 59°55' E 030°24'0 0.0
2018-May-15 13:57N 59°55' E 030°24'0 0.0
2018-May-15 13:27N 59°55' E 030°24'0 0.0
2018-May-15 12:36N 59°55' E 030°24'0 0.0
2018-May-15 12:09N 59°55' E 030°24'0 0.0
2018-May-15 11:48N 59°55' E 030°24'0 0.0
2018-May-15 11:27N 59°55' E 030°24'0 0.0
2018-May-15 10:09N 59°55' E 030°24'0 0.0
2018-May-15 09:51N 59°55' E 030°24'0 0.0
2018-May-15 09:09N 59°55' E 030°24'0 0.0
2018-May-15 08:45N 59°55' E 030°24'0 0.0
2018-May-15 08:30N 59°55' E 030°24'0 0.0
2018-May-15 07:57N 59°55' E 030°24'0 0.0
2018-May-15 07:24N 59°55' E 030°24'0 0.0
2018-May-15 06:45N 59°55' E 030°24'0 0.0
2018-May-15 06:30N 59°55' E 030°24'0 0.0
2018-May-15 05:57N 59°55' E 030°24'0 0.0
2018-May-15 04:54N 59°55' E 030°24'0 0.0
2018-May-15 04:00N 59°55' E 030°24'0 0.0
2018-May-15 03:30N 59°55' E 030°24'0 0.0
2018-May-15 02:57N 59°55' E 030°24'0 0.0
2018-May-15 02:27N 59°55' E 030°24'0 0.0
2018-May-15 01:21N 59°55' E 030°24'0 0.0
2018-May-15 00:57N 59°55' E 030°24'0 0.0
2018-May-14 23:54N 59°55' E 030°24'0 0.0
2018-May-14 23:30N 59°55' E 030°24'0 0.0
2018-May-14 23:00N 59°55' E 030°24'0 0.0
2018-May-14 22:18N 59°55' E 030°24'0 0.0
2018-May-14 21:57N 59°55' E 030°24'0 0.0
2018-May-14 20:21N 59°55' E 030°24'0 0.0
2018-May-14 19:54N 59°55' E 030°24'0 0.0
2018-May-14 18:48N 59°55' E 030°24'0 0.0
2018-May-14 18:18N 59°55' E 030°24'0 0.0
2018-May-14 18:00N 59°55' E 030°24'0 0.0
2018-May-14 17:30N 59°55' E 030°24'0 0.0
2018-May-14 16:51N 59°55' E 030°24'0 0.0
2018-May-14 16:30N 59°55' E 030°24'0 0.0
2018-May-14 16:00N 59°55' E 030°24'0 0.0
2018-May-14 15:12N 59°55' E 030°24'0 0.0
2018-May-14 15:00N 59°55' E 030°24'0 0.0
2018-May-14 14:27N 59°55' E 030°24'0 0.0
2018-May-14 13:57N 59°55' E 030°24'0 0.0
2018-May-14 13:27N 59°55' E 030°24'0 0.0
2018-May-14 12:39N 59°55' E 030°24'0 0.0
2018-May-14 12:30N 59°55' E 030°24'0 0.0
2018-May-14 11:30N 59°55' E 030°24'0 0.0
2018-May-14 10:27N 59°55' E 030°24'0 0.0
2018-May-14 09:57N 59°55' E 030°24'0 0.0
2018-May-14 09:27N 59°55' E 030°24'0 0.0
2018-May-14 08:54N 59°55' E 030°24'0 0.0
2018-May-14 08:27N 59°55' E 030°24'0 0.0
2018-May-14 07:24N 59°55' E 030°24'0 0.0
2018-May-14 06:57N 59°55' E 030°24'0 0.0
2018-May-14 06:30N 59°55' E 030°24'0 0.0
2018-May-14 06:00N 59°55' E 030°24'0 0.0
2018-May-14 05:27N 59°55' E 030°24'0 0.0
2018-May-14 05:00N 59°55' E 030°24'0 0.0
2018-May-14 04:30N 59°55' E 030°24'0 0.0
2018-May-14 04:00N 59°55' E 030°24'0 0.0
2018-May-14 03:30N 59°55' E 030°24'0 0.0
2018-May-14 03:00N 59°55' E 030°24'0 0.0
2018-May-14 02:30N 59°55' E 030°24'0 0.0
2018-May-14 01:57N 59°55' E 030°24'0 0.0
2018-May-14 01:30N 59°55' E 030°24'0 0.0
2018-May-14 00:27N 59°55' E 030°24'0 0.0
2018-May-13 23:54N 59°55' E 030°24'0 0.0
2018-May-13 21:15N 59°55' E 030°24'0 0.0
2018-May-13 21:00N 59°55' E 030°24'0 0.0
2018-May-13 20:27N 59°55' E 030°24'0 0.0
2018-May-13 19:57N 59°55' E 030°24'0 0.0
2018-May-13 17:48N 59°55' E 030°24'0 0.0
2018-May-13 17:27N 59°55' E 030°24'0 0.0
2018-May-13 16:42N 59°55' E 030°24'0 0.0
2018-May-13 16:30N 59°55' E 030°24'0 0.0
2018-May-13 16:00N 59°55' E 030°24'0 0.0
2018-May-13 15:24N 59°55' E 030°24'0 0.0
2018-May-13 14:57N 59°55' E 030°24'0 0.0
2018-May-13 14:30N 59°55' E 030°24'0 0.0
2018-May-13 13:54N 59°55' E 030°24'0 0.1
2018-May-13 13:31N 59°55' E 030°24'4 7.9
2018-May-13 13:00N 59°52' E 030°29'5 8.5
2018-May-13 12:28N 59°49' E 030°35'  

Dump ship's entire track history